Terminal Aerodrome Forecast
Issued by NWS Paducah, KY

Home | Current Version | Previous Version | Text Only | Print | Product List | Glossary On
Versions: 1 2 3 4 5 6 7 8 9 10 11 12
000
FTUS43 KPAH 241700
TAFPAH
TAF
KPAH 241733Z 2418/2518 17012G20KT P6SM FEW150 BKN250
     FM250100 18012G20KT P6SM VCTS BKN040CB OVC100
      TEMPO 2501/2503 24025G35KT 3SM TSRA BR OVC025CB
     FM250300 23011KT P6SM VCSH BKN010 OVC050
     FM250600 26012KT P6SM BKN025
     FM251200 31012G19KT P6SM SKC=

USA.gov is the U.S. government's official web portal to all federal, state and local government web resources and services.